sensor_id;sensor_type;location;lat;lon;timestamp;temperature;humidity
18882;DHT22;9573;50.948;11.600;2023-06-10T00:00:39;17.00;99.90
18882;DHT22;9573;50.948;11.600;2023-06-10T00:03:07;16.90;99.90
18882;DHT22;9573;50.948;11.600;2023-06-10T00:05:34;16.90;99.90
18882;DHT22;9573;50.948;11.600;2023-06-10T00:08:06;16.80;99.90
18882;DHT22;9573;50.948;11.600;2023-06-10T00:10:33;16.80;99.90
18882;DHT22;9573;50.948;11.600;2023-06-10T00:13:01;16.80;99.90
18882;DHT22;9573;50.948;11.600;2023-06-10T00:15:29;16.80;99.90
18882;DHT22;9573;50.948;11.600;2023-06-10T00:17:56;16.70;99.90
18882;DHT22;9573;50.948;11.600;2023-06-10T00:20:24;16.70;99.90
18882;DHT22;9573;50.948;11.600;2023-06-10T00:22:51;16.80;99.90
18882;DHT22;9573;50.948;11.600;2023-06-10T00:25:20;16.70;99.90
18882;DHT22;9573;50.948;11.600;2023-06-10T00:27:47;16.70;99.90
18882;DHT22;9573;50.948;11.600;2023-06-10T00:30:14;16.70;99.90
18882;DHT22;9573;50.948;11.600;2023-06-10T00:32:41;16.60;99.90
18882;DHT22;9573;50.948;11.600;2023-06-10T00:35:08;16.60;99.90
18882;DHT22;9573;50.948;11.600;2023-06-10T00:37:35;16.60;99.90
18882;DHT22;9573;50.948;11.600;2023-06-10T00:40:04;16.50;99.90
18882;DHT22;9573;50.948;11.600;2023-06-10T00:42:34;16.50;99.90
18882;DHT22;9573;50.948;11.600;2023-06-10T00:45:01;16.50;99.90
18882;DHT22;9573;50.948;11.600;2023-06-10T00:47:29;16.50;99.90
18882;DHT22;9573;50.948;11.600;2023-06-10T00:49:57;16.40;99.90
18882;DHT22;9573;50.948;11.600;2023-06-10T00:52:28;16.10;99.90
18882;DHT22;9573;50.948;11.600;2023-06-10T00:54:56;16.40;99.90
18882;DHT22;9573;50.948;11.600;2023-06-10T00:57:24;16.30;99.90
18882;DHT22;9573;50.948;11.600;2023-06-10T00:59:54;16.30;99.90
18882;DHT22;9573;50.948;11.600;2023-06-10T01:02:21;16.20;99.90
18882;DHT22;9573;50.948;11.600;2023-06-10T01:04:48;16.30;99.90
18882;DHT22;9573;50.948;11.600;2023-06-10T01:07:23;16.40;99.90
18882;DHT22;9573;50.948;11.600;2023-06-10T01:09:55;16.40;99.90
18882;DHT22;9573;50.948;11.600;2023-06-10T01:12:31;16.40;99.90
18882;DHT22;9573;50.948;11.600;2023-06-10T01:15:02;16.50;99.90
18882;DHT22;9573;50.948;11.600;2023-06-10T01:17:30;16.50;99.90
18882;DHT22;9573;50.948;11.600;2023-06-10T01:19:57;16.60;99.90
18882;DHT22;9573;50.948;11.600;2023-06-10T01:22:27;16.60;99.90
18882;DHT22;9573;50.948;11.600;2023-06-10T01:24:57;16.70;99.90
18882;DHT22;9573;50.948;11.600;2023-06-10T01:27:29;16.70;99.90
18882;DHT22;9573;50.948;11.600;2023-06-10T01:30:02;16.60;99.90
18882;DHT22;9573;50.948;11.600;2023-06-10T01:32:34;16.60;99.90
18882;DHT22;9573;50.948;11.600;2023-06-10T01:35:05;16.50;99.90
18882;DHT22;9573;50.948;11.600;2023-06-10T01:37:37;16.50;99.90
18882;DHT22;9573;50.948;11.600;2023-06-10T01:40:06;16.50;99.90
18882;DHT22;9573;50.948;11.600;2023-06-10T01:42:34;16.50;99.90
18882;DHT22;9573;50.948;11.600;2023-06-10T01:45:01;16.40;99.90
18882;DHT22;9573;50.948;11.600;2023-06-10T01:47:29;16.40;99.90
18882;DHT22;9573;50.948;11.600;2023-06-10T01:49:56;16.30;99.90
18882;DHT22;9573;50.948;11.600;2023-06-10T01:52:23;16.30;99.90
18882;DHT22;9573;50.948;11.600;2023-06-10T01:54:51;16.30;99.90
18882;DHT22;9573;50.948;11.600;2023-06-10T01:57:18;16.20;99.90
18882;DHT22;9573;50.948;11.600;2023-06-10T01:59:46;16.20;99.90
18882;DHT22;9573;50.948;11.600;2023-06-10T02:02:13;16.20;99.90
18882;DHT22;9573;50.948;11.600;2023-06-10T02:04:40;16.00;99.90
18882;DHT22;9573;50.948;11.600;2023-06-10T02:07:07;16.00;99.90
18882;DHT22;9573;50.948;11.600;2023-06-10T02:09:34;15.90;99.90
18882;DHT22;9573;50.948;11.600;2023-06-10T02:12:04;15.90;99.90
18882;DHT22;9573;50.948;11.600;2023-06-10T02:14:33;15.80;99.90
18882;DHT22;9573;50.948;11.600;2023-06-10T02:17:00;15.70;99.90
18882;DHT22;9573;50.948;11.600;2023-06-10T02:19:27;15.60;99.90
18882;DHT22;9573;50.948;11.600;2023-06-10T02:21:54;15.60;99.90
18882;DHT22;9573;50.948;11.600;2023-06-10T02:24:21;15.50;99.90
18882;DHT22;9573;50.948;11.600;2023-06-10T02:26:48;15.50;99.90
18882;DHT22;9573;50.948;11.600;2023-06-10T02:29:18;15.40;99.90
18882;DHT22;9573;50.948;11.600;2023-06-10T02:31:45;15.40;99.90
18882;DHT22;9573;50.948;11.600;2023-06-10T02:34:13;15.30;99.90
18882;DHT22;9573;50.948;11.600;2023-06-10T02:36:41;15.30;99.90
18882;DHT22;9573;50.948;11.600;2023-06-10T02:39:08;15.30;99.90
18882;DHT22;9573;50.948;11.600;2023-06-10T02:41:35;15.20;99.90
18882;DHT22;9573;50.948;11.600;2023-06-10T02:44:02;15.20;99.90
18882;DHT22;9573;50.948;11.600;2023-06-10T02:46:31;15.10;99.90
18882;DHT22;9573;50.948;11.600;2023-06-10T02:48:58;15.00;99.90
18882;DHT22;9573;50.948;11.600;2023-06-10T02:51:25;15.00;99.90
18882;DHT22;9573;50.948;11.600;2023-06-10T02:53:52;15.00;99.90
18882;DHT22;9573;50.948;11.600;2023-06-10T02:56:19;15.00;99.90
18882;DHT22;9573;50.948;11.600;2023-06-10T02:58:47;15.00;99.90
18882;DHT22;9573;50.948;11.600;2023-06-10T03:01:15;15.00;99.90
18882;DHT22;9573;50.948;11.600;2023-06-10T03:03:44;15.00;99.90
18882;DHT22;9573;50.948;11.600;2023-06-10T03:06:12;15.00;99.90
18882;DHT22;9573;50.948;11.600;2023-06-10T03:08:40;15.00;99.90
18882;DHT22;9573;50.948;11.600;2023-06-10T03:11:07;15.00;99.90
18882;DHT22;9573;50.948;11.600;2023-06-10T03:13:34;14.40;99.90
18882;DHT22;9573;50.948;11.600;2023-06-10T03:16:01;15.00;99.90
18882;DHT22;9573;50.948;11.600;2023-06-10T03:18:28;15.00;99.90
18882;DHT22;9573;50.948;11.600;2023-06-10T03:20:57;15.00;99.90
18882;DHT22;9573;50.948;11.600;2023-06-10T03:23:24;15.00;99.90
18882;DHT22;9573;50.948;11.600;2023-06-10T03:25:52;15.10;99.90
18882;DHT22;9573;50.948;11.600;2023-06-10T03:28:20;15.40;99.90
18882;DHT22;9573;50.948;11.600;2023-06-10T03:30:47;15.80;99.90
18882;DHT22;9573;50.948;11.600;2023-06-10T03:33:15;16.20;99.90
18882;DHT22;9573;50.948;11.600;2023-06-10T03:35:42;16.70;99.90
18882;DHT22;9573;50.948;11.600;2023-06-10T03:38:10;17.20;99.90
18882;DHT22;9573;50.948;11.600;2023-06-10T03:40:37;17.70;99.90
18882;DHT22;9573;50.948;11.600;2023-06-10T03:43:05;18.20;99.90
18882;DHT22;9573;50.948;11.600;2023-06-10T03:45:32;18.70;99.90
18882;DHT22;9573;50.948;11.600;2023-06-10T03:48:00;19.30;99.90
18882;DHT22;9573;50.948;11.600;2023-06-10T03:50:29;19.80;99.90
18882;DHT22;9573;50.948;11.600;2023-06-10T03:52:56;20.30;99.90
18882;DHT22;9573;50.948;11.600;2023-06-10T03:55:24;20.90;99.90
18882;DHT22;9573;50.948;11.600;2023-06-10T03:57:51;21.30;99.90
18882;DHT22;9573;50.948;11.600;2023-06-10T04:00:19;21.80;99.90
18882;DHT22;9573;50.948;11.600;2023-06-10T04:02:47;22.60;99.90
18882;DHT22;9573;50.948;11.600;2023-06-10T04:05:18;23.30;99.90
18882;DHT22;9573;50.948;11.600;2023-06-10T04:07:47;23.50;99.90
18882;DHT22;9573;50.948;11.600;2023-06-10T04:10:15;24.20;99.90
18882;DHT22;9573;50.948;11.600;2023-06-10T04:12:44;24.80;99.90
18882;DHT22;9573;50.948;11.600;2023-06-10T04:15:11;25.10;99.90
18882;DHT22;9573;50.948;11.600;2023-06-10T04:17:38;25.50;99.90
18882;DHT22;9573;50.948;11.600;2023-06-10T04:20:07;26.00;99.90
18882;DHT22;9573;50.948;11.600;2023-06-10T04:22:35;26.40;99.90
18882;DHT22;9573;50.948;11.600;2023-06-10T04:25:02;26.90;99.90
18882;DHT22;9573;50.948;11.600;2023-06-10T04:27:29;27.40;99.90
18882;DHT22;9573;50.948;11.600;2023-06-10T04:29:58;27.70;99.10
18882;DHT22;9573;50.948;11.600;2023-06-10T04:32:25;28.00;97.20
18882;DHT22;9573;50.948;11.600;2023-06-10T04:34:52;28.40;95.50
18882;DHT22;9573;50.948;11.600;2023-06-10T04:37:19;28.60;93.90
18882;DHT22;9573;50.948;11.600;2023-06-10T04:39:46;29.00;92.70
18882;DHT22;9573;50.948;11.600;2023-06-10T04:42:13;29.00;91.80
18882;DHT22;9573;50.948;11.600;2023-06-10T04:44:41;29.10;91.30
18882;DHT22;9573;50.948;11.600;2023-06-10T04:47:09;29.20;90.90
18882;DHT22;9573;50.948;11.600;2023-06-10T04:49:36;29.60;89.80
18882;DHT22;9573;50.948;11.600;2023-06-10T04:52:04;29.70;88.60
18882;DHT22;9573;50.948;11.600;2023-06-10T04:54:32;29.90;87.90
18882;DHT22;9573;50.948;11.600;2023-06-10T04:56:59;30.30;86.20
18882;DHT22;9573;50.948;11.600;2023-06-10T04:59:26;30.60;84.90
18882;DHT22;9573;50.948;11.600;2023-06-10T05:01:53;30.40;83.40
18882;DHT22;9573;50.948;11.600;2023-06-10T05:04:22;30.00;84.00
18882;DHT22;9573;50.948;11.600;2023-06-10T05:06:49;30.40;83.40
18882;DHT22;9573;50.948;11.600;2023-06-10T05:09:16;30.70;82.20
18882;DHT22;9573;50.948;11.600;2023-06-10T05:11:43;30.80;81.00
18882;DHT22;9573;50.948;11.600;2023-06-10T05:14:14;31.00;80.10
18882;DHT22;9573;50.948;11.600;2023-06-10T05:16:42;30.20;80.90
18882;DHT22;9573;50.948;11.600;2023-06-10T05:19:09;29.70;81.90
18882;DHT22;9573;50.948;11.600;2023-06-10T05:21:38;29.90;81.80
18882;DHT22;9573;50.948;11.600;2023-06-10T05:24:06;29.40;82.80
18882;DHT22;9573;50.948;11.600;2023-06-10T05:26:33;29.50;82.70
18882;DHT22;9573;50.948;11.600;2023-06-10T05:29:03;29.10;83.60
18882;DHT22;9573;50.948;11.600;2023-06-10T05:31:30;29.80;83.40
18882;DHT22;9573;50.948;11.600;2023-06-10T05:33:58;31.20;80.30
18882;DHT22;9573;50.948;11.600;2023-06-10T05:36:25;32.30;77.30
18882;DHT22;9573;50.948;11.600;2023-06-10T05:38:54;33.00;74.60
18882;DHT22;9573;50.948;11.600;2023-06-10T05:41:21;33.50;72.60
18882;DHT22;9573;50.948;11.600;2023-06-10T05:43:49;34.10;70.60
18882;DHT22;9573;50.948;11.600;2023-06-10T05:46:16;33.80;70.00
18882;DHT22;9573;50.948;11.600;2023-06-10T05:48:43;34.00;69.90
18882;DHT22;9573;50.948;11.600;2023-06-10T05:51:10;34.10;68.50
18882;DHT22;9573;50.948;11.600;2023-06-10T05:53:37;34.30;67.80
18882;DHT22;9573;50.948;11.600;2023-06-10T05:56:06;34.40;67.30
18882;DHT22;9573;50.948;11.600;2023-06-10T05:58:36;34.40;66.60
18882;DHT22;9573;50.948;11.600;2023-06-10T06:01:03;34.30;66.80
18882;DHT22;9573;50.948;11.600;2023-06-10T06:03:30;34.80;65.90
18882;DHT22;9573;50.948;11.600;2023-06-10T06:06:00;35.20;65.20
18882;DHT22;9573;50.948;11.600;2023-06-10T06:08:32;35.50;64.00
18882;DHT22;9573;50.948;11.600;2023-06-10T06:10:59;35.50;63.50
18882;DHT22;9573;50.948;11.600;2023-06-10T06:13:31;35.70;63.50
18882;DHT22;9573;50.948;11.600;2023-06-10T06:15:58;36.40;61.80
18882;DHT22;9573;50.948;11.600;2023-06-10T06:18:38;36.40;60.60
18882;DHT22;9573;50.948;11.600;2023-06-10T06:21:13;36.20;61.40
18882;DHT22;9573;50.948;11.600;2023-06-10T06:23:49;36.10;61.20
18882;DHT22;9573;50.948;11.600;2023-06-10T06:26:32;36.90;60.40
18882;DHT22;9573;50.948;11.600;2023-06-10T06:29:07;36.90;59.30
18882;DHT22;9573;50.948;11.600;2023-06-10T06:31:39;37.20;59.10
18882;DHT22;9573;50.948;11.600;2023-06-10T06:34:08;37.50;58.60
18882;DHT22;9573;50.948;11.600;2023-06-10T06:36:35;37.80;58.20
18882;DHT22;9573;50.948;11.600;2023-06-10T06:39:03;38.10;57.60
18882;DHT22;9573;50.948;11.600;2023-06-10T06:41:30;38.00;57.10
18882;DHT22;9573;50.948;11.600;2023-06-10T06:43:57;38.10;57.30
18882;DHT22;9573;50.948;11.600;2023-06-10T06:46:26;37.90;56.80
18882;DHT22;9573;50.948;11.600;2023-06-10T06:48:54;37.90;57.90
18882;DHT22;9573;50.948;11.600;2023-06-10T06:51:21;37.80;56.80
18882;DHT22;9573;50.948;11.600;2023-06-10T06:53:48;37.70;56.80
18882;DHT22;9573;50.948;11.600;2023-06-10T06:56:16;38.00;57.00
18882;DHT22;9573;50.948;11.600;2023-06-10T06:58:44;38.00;56.40
18882;DHT22;9573;50.948;11.600;2023-06-10T07:01:13;37.90;56.60
18882;DHT22;9573;50.948;11.600;2023-06-10T07:03:44;38.30;56.10
18882;DHT22;9573;50.948;11.600;2023-06-10T07:06:12;38.80;55.90
18882;DHT22;9573;50.948;11.600;2023-06-10T07:08:52;39.30;55.40
18882;DHT22;9573;50.948;11.600;2023-06-10T07:11:19;39.90;54.10
18882;DHT22;9573;50.948;11.600;2023-06-10T07:13:49;39.30;54.40
18882;DHT22;9573;50.948;11.600;2023-06-10T07:16:16;39.40;54.30
18882;DHT22;9573;50.948;11.600;2023-06-10T07:18:47;39.70;54.10
18882;DHT22;9573;50.948;11.600;2023-06-10T07:21:14;39.80;53.90
18882;DHT22;9573;50.948;11.600;2023-06-10T07:23:42;39.70;53.60
18882;DHT22;9573;50.948;11.600;2023-06-10T07:26:10;40.00;53.60
18882;DHT22;9573;50.948;11.600;2023-06-10T07:28:39;40.30;52.90
18882;DHT22;9573;50.948;11.600;2023-06-10T07:31:07;40.40;52.90
18882;DHT22;9573;50.948;11.600;2023-06-10T07:33:35;40.60;52.80
18882;DHT22;9573;50.948;11.600;2023-06-10T07:36:04;40.30;52.70
18882;DHT22;9573;50.948;11.600;2023-06-10T07:38:31;40.00;53.00
18882;DHT22;9573;50.948;11.600;2023-06-10T07:40:58;40.00;53.00
18882;DHT22;9573;50.948;11.600;2023-06-10T07:43:25;39.20;53.40
18882;DHT22;9573;50.948;11.600;2023-06-10T07:45:54;39.10;53.70
18882;DHT22;9573;50.948;11.600;2023-06-10T07:48:21;38.50;54.50
18882;DHT22;9573;50.948;11.600;2023-06-10T07:50:49;38.70;54.30
18882;DHT22;9573;50.948;11.600;2023-06-10T07:53:19;38.50;54.30
18882;DHT22;9573;50.948;11.600;2023-06-10T07:55:46;38.20;54.90
18882;DHT22;9573;50.948;11.600;2023-06-10T07:58:14;38.10;55.10
18882;DHT22;9573;50.948;11.600;2023-06-10T08:00:41;38.30;55.10
18882;DHT22;9573;50.948;11.600;2023-06-10T08:03:08;38.70;54.40
18882;DHT22;9573;50.948;11.600;2023-06-10T08:05:35;39.30;54.00
18882;DHT22;9573;50.948;11.600;2023-06-10T08:08:03;39.70;53.90
18882;DHT22;9573;50.948;11.600;2023-06-10T08:10:32;39.80;52.90
18882;DHT22;9573;50.948;11.600;2023-06-10T08:12:59;39.70;53.00
18882;DHT22;9573;50.948;11.600;2023-06-10T08:15:26;40.20;52.60
18882;DHT22;9573;50.948;11.600;2023-06-10T08:17:54;40.30;52.10
18882;DHT22;9573;50.948;11.600;2023-06-10T08:20:22;40.40;52.10
18882;DHT22;9573;50.948;11.600;2023-06-10T08:22:49;40.00;52.10
18882;DHT22;9573;50.948;11.600;2023-06-10T08:25:16;39.60;52.40
18882;DHT22;9573;50.948;11.600;2023-06-10T08:27:45;39.70;52.40
18882;DHT22;9573;50.948;11.600;2023-06-10T08:30:12;39.90;52.30
18882;DHT22;9573;50.948;11.600;2023-06-10T08:32:39;39.80;52.60
18882;DHT22;9573;50.948;11.600;2023-06-10T08:35:07;39.90;52.40
18882;DHT22;9573;50.948;11.600;2023-06-10T08:37:35;39.60;52.40
18882;DHT22;9573;50.948;11.600;2023-06-10T08:40:02;39.10;53.00
18882;DHT22;9573;50.948;11.600;2023-06-10T08:42:34;38.80;53.40
18882;DHT22;9573;50.948;11.600;2023-06-10T08:45:08;39.10;53.70
18882;DHT22;9573;50.948;11.600;2023-06-10T08:47:43;39.60;52.90
18882;DHT22;9573;50.948;11.600;2023-06-10T08:50:11;40.00;53.00
18882;DHT22;9573;50.948;11.600;2023-06-10T08:52:43;40.40;52.10
18882;DHT22;9573;50.948;11.600;2023-06-10T08:55:13;40.90;51.50
18882;DHT22;9573;50.948;11.600;2023-06-10T08:57:43;41.30;51.30
18882;DHT22;9573;50.948;11.600;2023-06-10T09:00:13;41.00;51.70
18882;DHT22;9573;50.948;11.600;2023-06-10T09:02:41;40.90;51.20
18882;DHT22;9573;50.948;11.600;2023-06-10T09:05:09;40.80;51.30
18882;DHT22;9573;50.948;11.600;2023-06-10T09:07:37;40.30;51.80
18882;DHT22;9573;50.948;11.600;2023-06-10T09:10:05;40.00;51.70
18882;DHT22;9573;50.948;11.600;2023-06-10T09:12:33;39.50;52.40
18882;DHT22;9573;50.948;11.600;2023-06-10T09:15:01;39.20;52.50
18882;DHT22;9573;50.948;11.600;2023-06-10T09:17:29;38.80;53.10
18882;DHT22;9573;50.948;11.600;2023-06-10T09:19:57;39.10;53.10
18882;DHT22;9573;50.948;11.600;2023-06-10T09:22:24;39.30;52.80
18882;DHT22;9573;50.948;11.600;2023-06-10T09:25:01;39.70;52.70
18882;DHT22;9573;50.948;11.600;2023-06-10T09:27:30;39.70;52.70
18882;DHT22;9573;50.948;11.600;2023-06-10T09:29:58;40.30;52.60
18882;DHT22;9573;50.948;11.600;2023-06-10T09:32:25;40.60;51.60
18882;DHT22;9573;50.948;11.600;2023-06-10T09:34:54;39.90;52.00
18882;DHT22;9573;50.948;11.600;2023-06-10T09:37:22;39.70;52.40
18882;DHT22;9573;50.948;11.600;2023-06-10T09:40:11;39.80;52.40
18882;DHT22;9573;50.948;11.600;2023-06-10T09:42:39;39.40;52.20
18882;DHT22;9573;50.948;11.600;2023-06-10T09:45:07;38.90;52.90
18882;DHT22;9573;50.948;11.600;2023-06-10T09:47:34;38.70;53.20
18882;DHT22;9573;50.948;11.600;2023-06-10T09:50:03;38.60;53.60
18882;DHT22;9573;50.948;11.600;2023-06-10T09:52:31;37.80;54.60
18882;DHT22;9573;50.948;11.600;2023-06-10T09:55:02;38.10;54.80
18882;DHT22;9573;50.948;11.600;2023-06-10T09:57:31;38.40;54.20
18882;DHT22;9573;50.948;11.600;2023-06-10T09:59:59;38.30;54.10
18882;DHT22;9573;50.948;11.600;2023-06-10T10:02:31;38.10;54.40
18882;DHT22;9573;50.948;11.600;2023-06-10T10:05:03;38.40;54.50
18882;DHT22;9573;50.948;11.600;2023-06-10T10:07:32;38.20;54.30
18882;DHT22;9573;50.948;11.600;2023-06-10T10:09:59;37.70;55.10
18882;DHT22;9573;50.948;11.600;2023-06-10T10:12:26;37.70;55.40
18882;DHT22;9573;50.948;11.600;2023-06-10T10:14:54;36.90;55.80
18882;DHT22;9573;50.948;11.600;2023-06-10T10:17:24;36.50;57.00
18882;DHT22;9573;50.948;11.600;2023-06-10T10:19:55;36.40;57.20
18882;DHT22;9573;50.948;11.600;2023-06-10T10:22:29;36.60;57.40
18882;DHT22;9573;50.948;11.600;2023-06-10T10:25:01;37.30;57.20
18882;DHT22;9573;50.948;11.600;2023-06-10T10:27:35;37.00;56.60
18882;DHT22;9573;50.948;11.600;2023-06-10T10:30:05;37.20;56.90
18882;DHT22;9573;50.948;11.600;2023-06-10T10:32:38;37.50;56.70
18882;DHT22;9573;50.948;11.600;2023-06-10T10:35:14;37.00;56.50
18882;DHT22;9573;50.948;11.600;2023-06-10T10:37:45;36.50;57.50
18882;DHT22;9573;50.948;11.600;2023-06-10T10:40:13;35.50;58.70
18882;DHT22;9573;50.948;11.600;2023-06-10T10:42:43;34.90;60.30
18882;DHT22;9573;50.948;11.600;2023-06-10T10:45:11;35.40;60.20
18882;DHT22;9573;50.948;11.600;2023-06-10T10:47:38;36.40;59.10
18882;DHT22;9573;50.948;11.600;2023-06-10T10:50:13;35.80;58.50
18882;DHT22;9573;50.948;11.600;2023-06-10T10:52:54;35.30;59.00
18882;DHT22;9573;50.948;11.600;2023-06-10T10:55:22;35.10;60.30
18882;DHT22;9573;50.948;11.600;2023-06-10T10:57:56;35.10;60.00
18882;DHT22;9573;50.948;11.600;2023-06-10T11:00:31;35.00;60.80
18882;DHT22;9573;50.948;11.600;2023-06-10T11:03:00;34.30;61.40
18882;DHT22;9573;50.948;11.600;2023-06-10T11:05:36;33.90;62.50
18882;DHT22;9573;50.948;11.600;2023-06-10T11:08:07;34.10;62.30
18882;DHT22;9573;50.948;11.600;2023-06-10T11:10:35;34.20;62.00
18882;DHT22;9573;50.948;11.600;2023-06-10T11:13:07;34.70;62.00
18882;DHT22;9573;50.948;11.600;2023-06-10T11:15:39;34.90;61.20
18882;DHT22;9573;50.948;11.600;2023-06-10T11:18:14;34.80;61.20
18882;DHT22;9573;50.948;11.600;2023-06-10T11:20:53;34.80;61.30
18882;DHT22;9573;50.948;11.600;2023-06-10T11:23:39;34.70;61.50
18882;DHT22;9573;50.948;11.600;2023-06-10T11:26:14;34.60;61.50
18882;DHT22;9573;50.948;11.600;2023-06-10T11:29:07;35.20;61.00
18882;DHT22;9573;50.948;11.600;2023-06-10T11:31:44;35.30;60.80
18882;DHT22;9573;50.948;11.600;2023-06-10T11:34:13;34.60;62.10
18882;DHT22;9573;50.948;11.600;2023-06-10T11:36:41;33.90;62.80
18882;DHT22;9573;50.948;11.600;2023-06-10T11:39:12;32.90;65.00
18882;DHT22;9573;50.948;11.600;2023-06-10T11:41:40;32.50;66.40
18882;DHT22;9573;50.948;11.600;2023-06-10T11:44:08;32.70;66.90
18882;DHT22;9573;50.948;11.600;2023-06-10T11:46:36;33.30;65.80
18882;DHT22;9573;50.948;11.600;2023-06-10T11:49:04;33.50;65.20
18882;DHT22;9573;50.948;11.600;2023-06-10T11:51:34;32.80;66.80
18882;DHT22;9573;50.948;11.600;2023-06-10T11:54:03;32.20;68.10
18882;DHT22;9573;50.948;11.600;2023-06-10T11:56:32;32.30;68.20
18882;DHT22;9573;50.948;11.600;2023-06-10T11:59:01;32.20;68.30
18882;DHT22;9573;50.948;11.600;2023-06-10T12:01:32;32.00;68.90
18882;DHT22;9573;50.948;11.600;2023-06-10T12:04:02;32.70;68.10
18882;DHT22;9573;50.948;11.600;2023-06-10T12:06:39;32.40;68.00
18882;DHT22;9573;50.948;11.600;2023-06-10T12:09:12;31.30;70.40
18882;DHT22;9573;50.948;11.600;2023-06-10T12:11:47;30.60;72.30
18882;DHT22;9573;50.948;11.600;2023-06-10T12:14:16;30.30;73.60
18882;DHT22;9573;50.948;11.600;2023-06-10T12:16:48;30.60;72.20
18882;DHT22;9573;50.948;11.600;2023-06-10T12:19:16;30.90;72.60
18882;DHT22;9573;50.948;11.600;2023-06-10T12:21:44;31.40;70.70
18882;DHT22;9573;50.948;11.600;2023-06-10T12:24:12;31.60;69.60
18882;DHT22;9573;50.948;11.600;2023-06-10T12:26:41;31.60;68.10
18882;DHT22;9573;50.948;11.600;2023-06-10T12:29:18;31.90;68.20
18882;DHT22;9573;50.948;11.600;2023-06-10T12:31:59;32.30;66.80
18882;DHT22;9573;50.948;11.600;2023-06-10T12:34:31;32.00;66.90
18882;DHT22;9573;50.948;11.600;2023-06-10T12:36:59;31.00;67.80
18882;DHT22;9573;50.948;11.600;2023-06-10T12:39:26;30.40;67.70
18882;DHT22;9573;50.948;11.600;2023-06-10T12:41:54;29.90;68.90
18882;DHT22;9573;50.948;11.600;2023-06-10T12:44:33;30.10;68.10
18882;DHT22;9573;50.948;11.600;2023-06-10T12:47:07;30.60;65.90
18882;DHT22;9573;50.948;11.600;2023-06-10T12:49:35;30.90;63.30
18882;DHT22;9573;50.948;11.600;2023-06-10T12:52:03;30.70;62.80
18882;DHT22;9573;50.948;11.600;2023-06-10T12:54:31;30.10;63.20
18882;DHT22;9573;50.948;11.600;2023-06-10T12:56:59;29.40;64.70
18882;DHT22;9573;50.948;11.600;2023-06-10T12:59:26;29.10;65.50
18882;DHT22;9573;50.948;11.600;2023-06-10T13:01:55;29.10;65.40
18882;DHT22;9573;50.948;11.600;2023-06-10T13:04:22;29.10;65.00
18882;DHT22;9573;50.948;11.600;2023-06-10T13:06:49;29.00;65.40
18882;DHT22;9573;50.948;11.600;2023-06-10T13:09:17;28.80;65.30
18882;DHT22;9573;50.948;11.600;2023-06-10T13:11:44;28.70;66.20
18882;DHT22;9573;50.948;11.600;2023-06-10T13:14:11;28.70;65.80
18882;DHT22;9573;50.948;11.600;2023-06-10T13:16:39;28.80;64.80
18882;DHT22;9573;50.948;11.600;2023-06-10T13:19:07;28.70;64.40
18882;DHT22;9573;50.948;11.600;2023-06-10T13:21:34;28.70;64.20
18882;DHT22;9573;50.948;11.600;2023-06-10T13:24:02;28.60;64.50
18882;DHT22;9573;50.948;11.600;2023-06-10T13:26:30;28.60;64.90
18882;DHT22;9573;50.948;11.600;2023-06-10T13:28:57;28.60;64.70
18882;DHT22;9573;50.948;11.600;2023-06-10T13:31:24;28.60;64.50
18882;DHT22;9573;50.948;11.600;2023-06-10T13:33:51;28.40;63.90
18882;DHT22;9573;50.948;11.600;2023-06-10T13:36:19;28.40;64.90
18882;DHT22;9573;50.948;11.600;2023-06-10T13:38:46;28.60;64.90
18882;DHT22;9573;50.948;11.600;2023-06-10T13:41:14;28.80;65.20
18882;DHT22;9573;50.948;11.600;2023-06-10T13:43:41;28.80;64.60
18882;DHT22;9573;50.948;11.600;2023-06-10T13:46:08;28.80;63.70
18882;DHT22;9573;50.948;11.600;2023-06-10T13:48:35;28.90;63.70
18882;DHT22;9573;50.948;11.600;2023-06-10T13:51:02;28.80;63.20
18882;DHT22;9573;50.948;11.600;2023-06-10T13:53:31;28.60;63.20
18882;DHT22;9573;50.948;11.600;2023-06-10T13:55:58;28.60;63.80
18882;DHT22;9573;50.948;11.600;2023-06-10T13:58:25;28.70;64.40
18882;DHT22;9573;50.948;11.600;2023-06-10T14:00:52;28.60;64.70
18882;DHT22;9573;50.948;11.600;2023-06-10T14:03:20;28.90;64.20
18882;DHT22;9573;50.948;11.600;2023-06-10T14:05:47;29.00;63.90
18882;DHT22;9573;50.948;11.600;2023-06-10T14:08:14;29.20;64.20
18882;DHT22;9573;50.948;11.600;2023-06-10T14:10:43;29.40;64.20
18882;DHT22;9573;50.948;11.600;2023-06-10T14:13:10;29.50;64.40
18882;DHT22;9573;50.948;11.600;2023-06-10T14:15:37;29.50;64.70
18882;DHT22;9573;50.948;11.600;2023-06-10T14:18:05;29.70;64.40
18882;DHT22;9573;50.948;11.600;2023-06-10T14:20:32;29.70;64.20
18882;DHT22;9573;50.948;11.600;2023-06-10T14:22:59;29.30;63.00
18882;DHT22;9573;50.948;11.600;2023-06-10T14:25:26;28.70;63.40
18882;DHT22;9573;50.948;11.600;2023-06-10T14:27:55;28.40;64.80
18882;DHT22;9573;50.948;11.600;2023-06-10T14:30:23;28.10;64.80
18882;DHT22;9573;50.948;11.600;2023-06-10T14:32:50;28.00;64.90
18882;DHT22;9573;50.948;11.600;2023-06-10T14:35:17;28.10;66.10
18882;DHT22;9573;50.948;11.600;2023-06-10T14:37:44;28.20;64.20
18882;DHT22;9573;50.948;11.600;2023-06-10T14:40:11;28.30;64.70
18882;DHT22;9573;50.948;11.600;2023-06-10T14:42:39;28.40;64.70
18882;DHT22;9573;50.948;11.600;2023-06-10T14:45:09;28.50;64.70
18882;DHT22;9573;50.948;11.600;2023-06-10T14:47:37;28.60;64.70
18882;DHT22;9573;50.948;11.600;2023-06-10T14:50:06;28.70;65.60
18882;DHT22;9573;50.948;11.600;2023-06-10T14:52:34;28.60;66.20
18882;DHT22;9573;50.948;11.600;2023-06-10T14:55:02;28.70;66.30
18882;DHT22;9573;50.948;11.600;2023-06-10T14:57:29;28.70;66.20
18882;DHT22;9573;50.948;11.600;2023-06-10T14:59:56;28.60;66.20
18882;DHT22;9573;50.948;11.600;2023-06-10T15:02:25;28.70;65.70
18882;DHT22;9573;50.948;11.600;2023-06-10T15:04:52;28.70;66.40
18882;DHT22;9573;50.948;11.600;2023-06-10T15:07:19;28.80;66.70
18882;DHT22;9573;50.948;11.600;2023-06-10T15:09:47;29.00;66.00
18882;DHT22;9573;50.948;11.600;2023-06-10T15:12:14;29.00;65.00
18882;DHT22;9573;50.948;11.600;2023-06-10T15:14:41;29.10;65.90
18882;DHT22;9573;50.948;11.600;2023-06-10T15:17:08;29.30;65.70
18882;DHT22;9573;50.948;11.600;2023-06-10T15:19:37;29.50;64.90
18882;DHT22;9573;50.948;11.600;2023-06-10T15:22:05;29.40;64.90
18882;DHT22;9573;50.948;11.600;2023-06-10T15:24:32;29.40;65.30
18882;DHT22;9573;50.948;11.600;2023-06-10T15:26:59;29.60;65.50
18882;DHT22;9573;50.948;11.600;2023-06-10T15:29:27;29.70;65.40
18882;DHT22;9573;50.948;11.600;2023-06-10T15:31:56;29.60;65.10
18882;DHT22;9573;50.948;11.600;2023-06-10T15:34:23;29.60;65.40
18882;DHT22;9573;50.948;11.600;2023-06-10T15:36:51;29.60;64.70
18882;DHT22;9573;50.948;11.600;2023-06-10T15:39:19;29.70;64.30